sensor_id;sensor_type;location;lat;lon;timestamp;temperature;humidity
36690;DHT22;22676;51.120;3.702;2023-06-26T00:01:16;30.10;47.50
36690;DHT22;22676;51.120;3.702;2023-06-26T00:03:42;30.20;47.40
36690;DHT22;22676;51.120;3.702;2023-06-26T00:06:07;30.00;47.60
36690;DHT22;22676;51.120;3.702;2023-06-26T00:08:33;30.00;47.80
36690;DHT22;22676;51.120;3.702;2023-06-26T00:10:58;30.00;47.80
36690;DHT22;22676;51.120;3.702;2023-06-26T00:13:24;30.00;47.50
36690;DHT22;22676;51.120;3.702;2023-06-26T00:15:50;30.10;47.20
36690;DHT22;22676;51.120;3.702;2023-06-26T00:18:16;29.90;47.20
36690;DHT22;22676;51.120;3.702;2023-06-26T00:20:41;30.00;47.60
36690;DHT22;22676;51.120;3.702;2023-06-26T00:23:07;29.80;47.70
36690;DHT22;22676;51.120;3.702;2023-06-26T00:25:33;29.70;48.00
36690;DHT22;22676;51.120;3.702;2023-06-26T00:27:58;29.80;48.00
36690;DHT22;22676;51.120;3.702;2023-06-26T00:30:24;29.80;48.00
36690;DHT22;22676;51.120;3.702;2023-06-26T00:32:50;29.80;48.00
36690;DHT22;22676;51.120;3.702;2023-06-26T00:35:16;29.80;48.10
36690;DHT22;22676;51.120;3.702;2023-06-26T00:37:41;29.80;48.00
36690;DHT22;22676;51.120;3.702;2023-06-26T00:40:07;29.80;48.10
36690;DHT22;22676;51.120;3.702;2023-06-26T00:42:33;29.80;48.00
36690;DHT22;22676;51.120;3.702;2023-06-26T00:44:59;29.80;48.10
36690;DHT22;22676;51.120;3.702;2023-06-26T00:47:24;29.90;48.10
36690;DHT22;22676;51.120;3.702;2023-06-26T00:49:51;29.80;48.10
36690;DHT22;22676;51.120;3.702;2023-06-26T00:52:17;29.80;48.10
36690;DHT22;22676;51.120;3.702;2023-06-26T00:54:42;29.90;48.20
36690;DHT22;22676;51.120;3.702;2023-06-26T00:57:08;29.80;48.10
36690;DHT22;22676;51.120;3.702;2023-06-26T00:59:34;29.70;48.50
36690;DHT22;22676;51.120;3.702;2023-06-26T01:01:59;29.90;48.20
36690;DHT22;22676;51.120;3.702;2023-06-26T01:04:25;29.90;48.10
36690;DHT22;22676;51.120;3.702;2023-06-26T01:06:52;29.90;48.10
36690;DHT22;22676;51.120;3.702;2023-06-26T01:09:18;30.00;48.10
36690;DHT22;22676;51.120;3.702;2023-06-26T01:11:44;30.10;47.80
36690;DHT22;22676;51.120;3.702;2023-06-26T01:14:10;30.10;47.30
36690;DHT22;22676;51.120;3.702;2023-06-26T01:16:36;30.00;47.30
36690;DHT22;22676;51.120;3.702;2023-06-26T01:19:03;29.90;47.60
36690;DHT22;22676;51.120;3.702;2023-06-26T01:21:34;29.80;48.00
36690;DHT22;22676;51.120;3.702;2023-06-26T01:24:02;29.80;48.10
36690;DHT22;22676;51.120;3.702;2023-06-26T01:26:32;29.90;48.10
36690;DHT22;22676;51.120;3.702;2023-06-26T01:29:00;29.90;47.90
36690;DHT22;22676;51.120;3.702;2023-06-26T01:31:27;29.90;47.90
36690;DHT22;22676;51.120;3.702;2023-06-26T01:33:54;29.90;48.10
36690;DHT22;22676;51.120;3.702;2023-06-26T01:36:19;29.90;48.00
36690;DHT22;22676;51.120;3.702;2023-06-26T01:38:45;29.90;47.80
36690;DHT22;22676;51.120;3.702;2023-06-26T01:41:10;29.90;48.00
36690;DHT22;22676;51.120;3.702;2023-06-26T01:46:32;29.90;48.10
36690;DHT22;22676;51.120;3.702;2023-06-26T01:51:27;29.90;48.00
36690;DHT22;22676;51.120;3.702;2023-06-26T01:53:55;30.00;47.90
36690;DHT22;22676;51.120;3.702;2023-06-26T01:56:22;30.00;47.90
36690;DHT22;22676;51.120;3.702;2023-06-26T01:58:48;30.00;47.80
36690;DHT22;22676;51.120;3.702;2023-06-26T02:01:14;30.00;47.70
36690;DHT22;22676;51.120;3.702;2023-06-26T02:03:40;30.00;47.80
36690;DHT22;22676;51.120;3.702;2023-06-26T02:06:05;30.00;47.90
36690;DHT22;22676;51.120;3.702;2023-06-26T02:08:31;30.00;47.90
36690;DHT22;22676;51.120;3.702;2023-06-26T02:10:56;29.80;47.90
36690;DHT22;22676;51.120;3.702;2023-06-26T02:13:22;29.70;47.80
36690;DHT22;22676;51.120;3.702;2023-06-26T02:15:47;29.60;48.00
36690;DHT22;22676;51.120;3.702;2023-06-26T02:18:13;29.60;48.20
36690;DHT22;22676;51.120;3.702;2023-06-26T02:20:39;29.70;48.40
36690;DHT22;22676;51.120;3.702;2023-06-26T02:23:05;29.80;48.10
36690;DHT22;22676;51.120;3.702;2023-06-26T02:25:30;29.90;48.00
36690;DHT22;22676;51.120;3.702;2023-06-26T02:27:56;29.90;47.80
36690;DHT22;22676;51.120;3.702;2023-06-26T02:30:21;29.80;48.00
36690;DHT22;22676;51.120;3.702;2023-06-26T02:32:47;29.80;48.00
36690;DHT22;22676;51.120;3.702;2023-06-26T02:35:13;29.90;48.60
36690;DHT22;22676;51.120;3.702;2023-06-26T02:37:38;29.80;48.00
36690;DHT22;22676;51.120;3.702;2023-06-26T02:40:04;29.70;48.20
36690;DHT22;22676;51.120;3.702;2023-06-26T02:42:31;29.70;48.20
36690;DHT22;22676;51.120;3.702;2023-06-26T02:44:56;29.70;48.20
36690;DHT22;22676;51.120;3.702;2023-06-26T02:47:22;29.60;48.30
36690;DHT22;22676;51.120;3.702;2023-06-26T02:49:47;29.70;48.40
36690;DHT22;22676;51.120;3.702;2023-06-26T02:52:13;29.60;48.60
36690;DHT22;22676;51.120;3.702;2023-06-26T02:54:39;29.60;48.60
36690;DHT22;22676;51.120;3.702;2023-06-26T02:57:04;29.50;48.60
36690;DHT22;22676;51.120;3.702;2023-06-26T02:59:30;29.50;48.60
36690;DHT22;22676;51.120;3.702;2023-06-26T03:01:55;29.50;48.70
36690;DHT22;22676;51.120;3.702;2023-06-26T03:04:21;29.40;48.90
36690;DHT22;22676;51.120;3.702;2023-06-26T03:06:47;29.30;49.00
36690;DHT22;22676;51.120;3.702;2023-06-26T03:09:12;29.10;49.40
36690;DHT22;22676;51.120;3.702;2023-06-26T03:11:38;29.00;50.10
36690;DHT22;22676;51.120;3.702;2023-06-26T03:14:03;28.90;49.30
36690;DHT22;22676;51.120;3.702;2023-06-26T03:16:29;28.70;49.60
36690;DHT22;22676;51.120;3.702;2023-06-26T03:18:54;28.80;49.60
36690;DHT22;22676;51.120;3.702;2023-06-26T03:21:20;28.90;49.70
36690;DHT22;22676;51.120;3.702;2023-06-26T03:23:45;28.90;49.60
36690;DHT22;22676;51.120;3.702;2023-06-26T03:26:11;28.80;49.80
36690;DHT22;22676;51.120;3.702;2023-06-26T03:28:39;28.80;50.00
36690;DHT22;22676;51.120;3.702;2023-06-26T03:31:05;28.70;50.20
36690;DHT22;22676;51.120;3.702;2023-06-26T03:33:31;28.60;50.20
36690;DHT22;22676;51.120;3.702;2023-06-26T03:35:56;28.50;50.40
36690;DHT22;22676;51.120;3.702;2023-06-26T03:38:22;28.60;50.40
36690;DHT22;22676;51.120;3.702;2023-06-26T03:40:47;28.60;50.40
36690;DHT22;22676;51.120;3.702;2023-06-26T03:43:13;28.60;50.30
36690;DHT22;22676;51.120;3.702;2023-06-26T03:45:38;28.70;50.20
36690;DHT22;22676;51.120;3.702;2023-06-26T03:48:04;28.80;50.10
36690;DHT22;22676;51.120;3.702;2023-06-26T03:50:29;28.70;50.00
36690;DHT22;22676;51.120;3.702;2023-06-26T03:52:55;28.80;50.10
36690;DHT22;22676;51.120;3.702;2023-06-26T03:55:20;28.80;50.00
36690;DHT22;22676;51.120;3.702;2023-06-26T03:57:47;28.80;49.80
36690;DHT22;22676;51.120;3.702;2023-06-26T04:00:13;28.80;49.70
36690;DHT22;22676;51.120;3.702;2023-06-26T04:02:39;28.70;49.90
36690;DHT22;22676;51.120;3.702;2023-06-26T04:05:05;28.60;50.10
36690;DHT22;22676;51.120;3.702;2023-06-26T04:07:30;28.50;50.20
36690;DHT22;22676;51.120;3.702;2023-06-26T04:09:56;28.50;50.30
36690;DHT22;22676;51.120;3.702;2023-06-26T04:12:22;28.50;50.20
36690;DHT22;22676;51.120;3.702;2023-06-26T04:14:47;28.40;49.90
36690;DHT22;22676;51.120;3.702;2023-06-26T04:17:13;28.30;50.00
36690;DHT22;22676;51.120;3.702;2023-06-26T04:19:38;28.20;50.00
36690;DHT22;22676;51.120;3.702;2023-06-26T04:22:04;28.30;50.00
36690;DHT22;22676;51.120;3.702;2023-06-26T04:24:30;28.40;50.20
36690;DHT22;22676;51.120;3.702;2023-06-26T04:26:55;28.30;50.20
36690;DHT22;22676;51.120;3.702;2023-06-26T04:29:25;28.30;50.40
36690;DHT22;22676;51.120;3.702;2023-06-26T04:31:51;28.30;50.40
36690;DHT22;22676;51.120;3.702;2023-06-26T04:34:17;28.20;50.50
36690;DHT22;22676;51.120;3.702;2023-06-26T04:36:42;28.20;50.30
36690;DHT22;22676;51.120;3.702;2023-06-26T04:39:13;28.20;50.60
36690;DHT22;22676;51.120;3.702;2023-06-26T04:41:40;28.30;50.40
36690;DHT22;22676;51.120;3.702;2023-06-26T04:44:05;28.20;50.70
36690;DHT22;22676;51.120;3.702;2023-06-26T04:46:31;28.20;50.70
36690;DHT22;22676;51.120;3.702;2023-06-26T04:48:57;28.50;47.70
36690;DHT22;22676;51.120;3.702;2023-06-26T04:51:24;28.60;46.60
36690;DHT22;22676;51.120;3.702;2023-06-26T04:53:49;28.60;45.50
36690;DHT22;22676;51.120;3.702;2023-06-26T04:56:15;28.60;45.20
36690;DHT22;22676;51.120;3.702;2023-06-26T04:58:40;28.50;44.80
36690;DHT22;22676;51.120;3.702;2023-06-26T05:01:06;28.40;44.60
36690;DHT22;22676;51.120;3.702;2023-06-26T05:03:32;28.40;45.20
36690;DHT22;22676;51.120;3.702;2023-06-26T05:05:57;28.30;44.50
36690;DHT22;22676;51.120;3.702;2023-06-26T05:08:23;28.20;44.50
36690;DHT22;22676;51.120;3.702;2023-06-26T05:10:49;28.20;44.50
36690;DHT22;22676;51.120;3.702;2023-06-26T05:13:15;28.10;44.40
36690;DHT22;22676;51.120;3.702;2023-06-26T05:15:43;28.10;44.40
36690;DHT22;22676;51.120;3.702;2023-06-26T05:18:09;28.00;44.50
36690;DHT22;22676;51.120;3.702;2023-06-26T05:20:35;27.90;44.70
36690;DHT22;22676;51.120;3.702;2023-06-26T05:23:01;27.90;44.80
36690;DHT22;22676;51.120;3.702;2023-06-26T05:25:27;27.90;44.50
36690;DHT22;22676;51.120;3.702;2023-06-26T05:27:54;27.60;44.70
36690;DHT22;22676;51.120;3.702;2023-06-26T05:30:20;27.30;45.00
36690;DHT22;22676;51.120;3.702;2023-06-26T05:32:46;27.20;45.10
36690;DHT22;22676;51.120;3.702;2023-06-26T05:35:12;27.00;45.10
36690;DHT22;22676;51.120;3.702;2023-06-26T05:37:38;26.80;45.50
36690;DHT22;22676;51.120;3.702;2023-06-26T05:40:05;26.80;46.00
36690;DHT22;22676;51.120;3.702;2023-06-26T05:42:31;26.70;46.10
36690;DHT22;22676;51.120;3.702;2023-06-26T05:44:57;26.80;46.00
36690;DHT22;22676;51.120;3.702;2023-06-26T05:47:22;26.90;45.70
36690;DHT22;22676;51.120;3.702;2023-06-26T05:49:48;26.90;45.40
36690;DHT22;22676;51.120;3.702;2023-06-26T05:52:14;26.90;45.10
36690;DHT22;22676;51.120;3.702;2023-06-26T05:54:40;26.80;45.10
36690;DHT22;22676;51.120;3.702;2023-06-26T05:57:05;26.70;45.20
36690;DHT22;22676;51.120;3.702;2023-06-26T05:59:31;26.70;45.40
36690;DHT22;22676;51.120;3.702;2023-06-26T06:01:57;26.80;45.20
36690;DHT22;22676;51.120;3.702;2023-06-26T06:04:22;26.80;44.80
36690;DHT22;22676;51.120;3.702;2023-06-26T06:06:48;26.90;43.60
36690;DHT22;22676;51.120;3.702;2023-06-26T06:09:13;26.70;43.90
36690;DHT22;22676;51.120;3.702;2023-06-26T06:11:39;26.60;43.80
36690;DHT22;22676;51.120;3.702;2023-06-26T06:14:05;26.40;44.10
36690;DHT22;22676;51.120;3.702;2023-06-26T06:16:30;26.20;45.00
36690;DHT22;22676;51.120;3.702;2023-06-26T06:18:56;26.10;45.00
36690;DHT22;22676;51.120;3.702;2023-06-26T06:21:21;26.10;45.50
36690;DHT22;22676;51.120;3.702;2023-06-26T06:23:47;26.10;45.40
36690;DHT22;22676;51.120;3.702;2023-06-26T06:26:12;26.00;45.60
36690;DHT22;22676;51.120;3.702;2023-06-26T06:28:38;25.90;45.70
36690;DHT22;22676;51.120;3.702;2023-06-26T06:31:04;25.60;46.20
36690;DHT22;22676;51.120;3.702;2023-06-26T06:33:30;25.70;46.20
36690;DHT22;22676;51.120;3.702;2023-06-26T06:35:55;25.50;46.80
36690;DHT22;22676;51.120;3.702;2023-06-26T06:38:21;25.60;46.50
36690;DHT22;22676;51.120;3.702;2023-06-26T06:40:47;25.70;46.40
36690;DHT22;22676;51.120;3.702;2023-06-26T06:43:12;25.70;46.40
36690;DHT22;22676;51.120;3.702;2023-06-26T06:45:38;25.70;46.90
36690;DHT22;22676;51.120;3.702;2023-06-26T06:48:04;25.70;46.30
36690;DHT22;22676;51.120;3.702;2023-06-26T06:50:29;25.60;47.00
36690;DHT22;22676;51.120;3.702;2023-06-26T06:52:55;25.70;45.80
36690;DHT22;22676;51.120;3.702;2023-06-26T06:55:20;25.70;45.00
36690;DHT22;22676;51.120;3.702;2023-06-26T06:57:46;25.70;44.40
36690;DHT22;22676;51.120;3.702;2023-06-26T07:00:12;25.70;44.80
36690;DHT22;22676;51.120;3.702;2023-06-26T07:02:40;25.70;44.90
36690;DHT22;22676;51.120;3.702;2023-06-26T07:05:05;25.50;45.10
36690;DHT22;22676;51.120;3.702;2023-06-26T07:07:31;25.40;45.70
36690;DHT22;22676;51.120;3.702;2023-06-26T07:10:07;25.50;46.20
36690;DHT22;22676;51.120;3.702;2023-06-26T07:12:33;25.50;45.80
36690;DHT22;22676;51.120;3.702;2023-06-26T07:15:03;25.40;45.50
36690;DHT22;22676;51.120;3.702;2023-06-26T07:17:30;25.30;45.90
36690;DHT22;22676;51.120;3.702;2023-06-26T07:19:55;25.20;46.30
36690;DHT22;22676;51.120;3.702;2023-06-26T07:22:21;25.20;45.90
36690;DHT22;22676;51.120;3.702;2023-06-26T07:24:47;25.40;45.50
36690;DHT22;22676;51.120;3.702;2023-06-26T07:27:15;25.40;45.10
36690;DHT22;22676;51.120;3.702;2023-06-26T07:29:42;25.30;45.40
36690;DHT22;22676;51.120;3.702;2023-06-26T07:32:07;25.30;45.70
36690;DHT22;22676;51.120;3.702;2023-06-26T07:34:33;25.20;46.30
36690;DHT22;22676;51.120;3.702;2023-06-26T07:36:58;25.20;46.60
36690;DHT22;22676;51.120;3.702;2023-06-26T07:39:24;25.40;46.20
36690;DHT22;22676;51.120;3.702;2023-06-26T07:41:50;25.40;46.20
36690;DHT22;22676;51.120;3.702;2023-06-26T07:44:15;25.40;45.80
36690;DHT22;22676;51.120;3.702;2023-06-26T07:46:41;25.40;46.00
36690;DHT22;22676;51.120;3.702;2023-06-26T07:49:06;25.60;45.30
36690;DHT22;22676;51.120;3.702;2023-06-26T07:51:32;25.70;45.10
36690;DHT22;22676;51.120;3.702;2023-06-26T07:53:57;25.70;45.80
36690;DHT22;22676;51.120;3.702;2023-06-26T07:56:23;25.70;45.20
36690;DHT22;22676;51.120;3.702;2023-06-26T07:58:48;25.50;45.40
36690;DHT22;22676;51.120;3.702;2023-06-26T08:01:14;25.50;45.40
36690;DHT22;22676;51.120;3.702;2023-06-26T08:03:39;25.50;45.70
36690;DHT22;22676;51.120;3.702;2023-06-26T08:06:05;25.50;45.80
36690;DHT22;22676;51.120;3.702;2023-06-26T08:08:31;25.50;45.60
36690;DHT22;22676;51.120;3.702;2023-06-26T08:10:56;25.30;45.90
36690;DHT22;22676;51.120;3.702;2023-06-26T08:13:22;25.30;46.50
36690;DHT22;22676;51.120;3.702;2023-06-26T08:15:48;25.50;45.30
36690;DHT22;22676;51.120;3.702;2023-06-26T08:18:13;25.50;45.10
36690;DHT22;22676;51.120;3.702;2023-06-26T08:20:39;25.50;45.00
36690;DHT22;22676;51.120;3.702;2023-06-26T08:23:04;25.60;45.20
36690;DHT22;22676;51.120;3.702;2023-06-26T08:25:30;25.40;45.20
36690;DHT22;22676;51.120;3.702;2023-06-26T08:27:55;25.20;45.80
36690;DHT22;22676;51.120;3.702;2023-06-26T08:30:21;25.20;46.30
36690;DHT22;22676;51.120;3.702;2023-06-26T08:32:47;25.20;46.40
36690;DHT22;22676;51.120;3.702;2023-06-26T08:35:12;25.40;45.50
36690;DHT22;22676;51.120;3.702;2023-06-26T08:37:38;25.40;45.10
36690;DHT22;22676;51.120;3.702;2023-06-26T08:40:04;25.30;45.40
36690;DHT22;22676;51.120;3.702;2023-06-26T08:42:29;25.50;44.60
36690;DHT22;22676;51.120;3.702;2023-06-26T08:44:55;25.60;44.10
36690;DHT22;22676;51.120;3.702;2023-06-26T08:47:21;25.60;44.20
36690;DHT22;22676;51.120;3.702;2023-06-26T08:52:26;25.80;43.80
36690;DHT22;22676;51.120;3.702;2023-06-26T08:54:56;25.90;43.60
36690;DHT22;22676;51.120;3.702;2023-06-26T08:57:23;25.80;44.20
36690;DHT22;22676;51.120;3.702;2023-06-26T08:59:48;26.00;43.40
36690;DHT22;22676;51.120;3.702;2023-06-26T09:02:14;26.00;43.30
36690;DHT22;22676;51.120;3.702;2023-06-26T09:04:40;26.10;42.50
36690;DHT22;22676;51.120;3.702;2023-06-26T09:07:05;26.00;42.40
36690;DHT22;22676;51.120;3.702;2023-06-26T09:09:31;25.90;42.80
36690;DHT22;22676;51.120;3.702;2023-06-26T09:11:56;25.90;43.10
36690;DHT22;22676;51.120;3.702;2023-06-26T09:14:22;25.90;43.30
36690;DHT22;22676;51.120;3.702;2023-06-26T09:16:48;26.00;42.80
36690;DHT22;22676;51.120;3.702;2023-06-26T09:19:14;26.00;42.60
36690;DHT22;22676;51.120;3.702;2023-06-26T09:21:40;26.10;42.90
36690;DHT22;22676;51.120;3.702;2023-06-26T09:24:09;26.10;42.80
36690;DHT22;22676;51.120;3.702;2023-06-26T09:26:36;26.20;42.70
36690;DHT22;22676;51.120;3.702;2023-06-26T09:29:02;26.40;42.20
36690;DHT22;22676;51.120;3.702;2023-06-26T09:31:28;26.40;42.60
36690;DHT22;22676;51.120;3.702;2023-06-26T09:33:58;26.30;42.80
36690;DHT22;22676;51.120;3.702;2023-06-26T09:36:26;26.40;42.30
36690;DHT22;22676;51.120;3.702;2023-06-26T09:38:51;26.80;41.60
36690;DHT22;22676;51.120;3.702;2023-06-26T09:41:17;27.10;40.70
36690;DHT22;22676;51.120;3.702;2023-06-26T09:43:46;27.30;40.00
36690;DHT22;22676;51.120;3.702;2023-06-26T09:46:31;27.50;39.50
36690;DHT22;22676;51.120;3.702;2023-06-26T09:49:06;27.60;39.40
36690;DHT22;22676;51.120;3.702;2023-06-26T09:51:33;28.00;39.20
36690;DHT22;22676;51.120;3.702;2023-06-26T09:53:59;28.10;39.00
36690;DHT22;22676;51.120;3.702;2023-06-26T09:56:25;28.20;38.50
36690;DHT22;22676;51.120;3.702;2023-06-26T09:58:50;28.40;38.60
36690;DHT22;22676;51.120;3.702;2023-06-26T10:01:17;28.40;38.30
36690;DHT22;22676;51.120;3.702;2023-06-26T10:03:42;28.50;37.80
36690;DHT22;22676;51.120;3.702;2023-06-26T10:06:09;28.50;37.40
36690;DHT22;22676;51.120;3.702;2023-06-26T10:08:35;28.70;37.30
36690;DHT22;22676;51.120;3.702;2023-06-26T10:11:02;28.80;37.30
36690;DHT22;22676;51.120;3.702;2023-06-26T10:13:31;28.60;36.70
36690;DHT22;22676;51.120;3.702;2023-06-26T10:15:57;28.60;36.70
36690;DHT22;22676;51.120;3.702;2023-06-26T10:18:24;28.70;36.40
36690;DHT22;22676;51.120;3.702;2023-06-26T10:20:51;28.50;36.50
36690;DHT22;22676;51.120;3.702;2023-06-26T10:23:19;28.60;36.90
36690;DHT22;22676;51.120;3.702;2023-06-26T10:25:45;28.60;36.80
36690;DHT22;22676;51.120;3.702;2023-06-26T10:28:13;28.70;36.60
36690;DHT22;22676;51.120;3.702;2023-06-26T10:30:40;28.80;36.30
36690;DHT22;22676;51.120;3.702;2023-06-26T10:33:06;28.70;36.20
36690;DHT22;22676;51.120;3.702;2023-06-26T10:35:32;28.70;36.40
36690;DHT22;22676;51.120;3.702;2023-06-26T10:38:02;28.80;36.60
36690;DHT22;22676;51.120;3.702;2023-06-26T10:40:42;28.70;36.60
36690;DHT22;22676;51.120;3.702;2023-06-26T10:43:08;28.70;36.50
36690;DHT22;22676;51.120;3.702;2023-06-26T10:45:34;28.70;36.80
36690;DHT22;22676;51.120;3.702;2023-06-26T10:48:00;28.70;36.50
36690;DHT22;22676;51.120;3.702;2023-06-26T10:50:27;28.80;35.90
36690;DHT22;22676;51.120;3.702;2023-06-26T11:03:44;29.10;35.20
36690;DHT22;22676;51.120;3.702;2023-06-26T11:06:13;29.10;35.20
36690;DHT22;22676;51.120;3.702;2023-06-26T11:08:46;29.10;35.30
36690;DHT22;22676;51.120;3.702;2023-06-26T11:11:15;29.00;34.50
36690;DHT22;22676;51.120;3.702;2023-06-26T11:13:41;28.80;34.20
36690;DHT22;22676;51.120;3.702;2023-06-26T11:16:06;29.00;34.30
36690;DHT22;22676;51.120;3.702;2023-06-26T11:18:32;29.00;34.60
36690;DHT22;22676;51.120;3.702;2023-06-26T11:21:31;28.90;34.50
36690;DHT22;22676;51.120;3.702;2023-06-26T11:23:49;28.90;34.60
36690;DHT22;22676;51.120;3.702;2023-06-26T11:26:16;28.80;34.30
36690;DHT22;22676;51.120;3.702;2023-06-26T11:28:53;28.80;34.50
36690;DHT22;22676;51.120;3.702;2023-06-26T11:31:27;28.80;34.80
36690;DHT22;22676;51.120;3.702;2023-06-26T11:33:53;28.80;35.20
36690;DHT22;22676;51.120;3.702;2023-06-26T11:36:19;28.60;35.80
36690;DHT22;22676;51.120;3.702;2023-06-26T11:38:44;28.80;35.60
36690;DHT22;22676;51.120;3.702;2023-06-26T11:41:10;28.90;35.40
36690;DHT22;22676;51.120;3.702;2023-06-26T11:43:35;28.80;35.70
36690;DHT22;22676;51.120;3.702;2023-06-26T11:46:01;29.00;35.00
36690;DHT22;22676;51.120;3.702;2023-06-26T11:48:27;29.10;33.90
36690;DHT22;22676;51.120;3.702;2023-06-26T11:50:53;28.80;33.90
36690;DHT22;22676;51.120;3.702;2023-06-26T11:53:19;28.80;34.00
36690;DHT22;22676;51.120;3.702;2023-06-26T11:55:45;28.70;34.60
36690;DHT22;22676;51.120;3.702;2023-06-26T11:58:11;28.90;34.60
36690;DHT22;22676;51.120;3.702;2023-06-26T12:00:47;29.10;34.30
36690;DHT22;22676;51.120;3.702;2023-06-26T12:03:12;29.10;34.70
36690;DHT22;22676;51.120;3.702;2023-06-26T12:05:38;29.10;34.30
36690;DHT22;22676;51.120;3.702;2023-06-26T12:08:04;29.00;33.50
36690;DHT22;22676;51.120;3.702;2023-06-26T12:10:32;29.00;33.30
36690;DHT22;22676;51.120;3.702;2023-06-26T12:12:57;29.10;33.20
36690;DHT22;22676;51.120;3.702;2023-06-26T12:15:24;29.20;33.90
36690;DHT22;22676;51.120;3.702;2023-06-26T12:17:50;29.40;33.10
36690;DHT22;22676;51.120;3.702;2023-06-26T12:20:19;29.10;33.40
36690;DHT22;22676;51.120;3.702;2023-06-26T12:22:47;28.90;33.50
36690;DHT22;22676;51.120;3.702;2023-06-26T12:25:21;29.00;33.80
36690;DHT22;22676;51.120;3.702;2023-06-26T12:27:47;29.10;33.20
36690;DHT22;22676;51.120;3.702;2023-06-26T12:30:13;29.20;32.70
36690;DHT22;22676;51.120;3.702;2023-06-26T12:32:39;29.20;32.40
36690;DHT22;22676;51.120;3.702;2023-06-26T12:35:05;29.40;32.50
36690;DHT22;22676;51.120;3.702;2023-06-26T12:37:35;29.30;32.50
36690;DHT22;22676;51.120;3.702;2023-06-26T12:40:01;29.20;32.60
36690;DHT22;22676;51.120;3.702;2023-06-26T12:42:32;29.30;32.80
36690;DHT22;22676;51.120;3.702;2023-06-26T12:44:58;29.40;32.80
36690;DHT22;22676;51.120;3.702;2023-06-26T12:47:24;29.40;33.00
36690;DHT22;22676;51.120;3.702;2023-06-26T12:49:50;29.50;33.00
36690;DHT22;22676;51.120;3.702;2023-06-26T12:52:17;29.60;32.90
36690;DHT22;22676;51.120;3.702;2023-06-26T12:54:45;29.60;32.40
36690;DHT22;22676;51.120;3.702;2023-06-26T12:57:12;29.60;32.00
36690;DHT22;22676;51.120;3.702;2023-06-26T12:59:39;29.50;32.10
36690;DHT22;22676;51.120;3.702;2023-06-26T13:02:05;29.60;32.50
36690;DHT22;22676;51.120;3.702;2023-06-26T13:04:31;29.40;32.60
36690;DHT22;22676;51.120;3.702;2023-06-26T13:06:57;29.10;32.60
36690;DHT22;22676;51.120;3.702;2023-06-26T13:09:25;28.90;33.20
36690;DHT22;22676;51.120;3.702;2023-06-26T13:11:51;28.70;33.80
36690;DHT22;22676;51.120;3.702;2023-06-26T13:14:17;28.70;34.00
36690;DHT22;22676;51.120;3.702;2023-06-26T13:16:43;28.70;33.30
36690;DHT22;22676;51.120;3.702;2023-06-26T13:19:08;28.70;33.60
36690;DHT22;22676;51.120;3.702;2023-06-26T13:21:34;28.90;33.80
36690;DHT22;22676;51.120;3.702;2023-06-26T13:24:00;28.90;33.80
36690;DHT22;22676;51.120;3.702;2023-06-26T13:26:25;28.90;33.90
36690;DHT22;22676;51.120;3.702;2023-06-26T13:28:54;28.90;34.20
36690;DHT22;22676;51.120;3.702;2023-06-26T13:31:19;29.10;34.20
36690;DHT22;22676;51.120;3.702;2023-06-26T13:33:45;29.10;34.20
36690;DHT22;22676;51.120;3.702;2023-06-26T13:36:14;29.10;34.80
36690;DHT22;22676;51.120;3.702;2023-06-26T13:38:39;29.10;34.70
36690;DHT22;22676;51.120;3.702;2023-06-26T13:41:05;29.30;34.80
36690;DHT22;22676;51.120;3.702;2023-06-26T13:43:31;29.00;34.70
36690;DHT22;22676;51.120;3.702;2023-06-26T13:45:56;28.70;35.30
36690;DHT22;22676;51.120;3.702;2023-06-26T13:48:22;28.50;35.80
36690;DHT22;22676;51.120;3.702;2023-06-26T13:50:51;28.60;35.90
36690;DHT22;22676;51.120;3.702;2023-06-26T13:53:17;28.80;35.90
36690;DHT22;22676;51.120;3.702;2023-06-26T13:55:42;28.80;36.00
36690;DHT22;22676;51.120;3.702;2023-06-26T13:58:09;29.00;35.60
36690;DHT22;22676;51.120;3.702;2023-06-26T14:00:35;28.90;35.80
36690;DHT22;22676;51.120;3.702;2023-06-26T14:03:01;28.90;36.00
36690;DHT22;22676;51.120;3.702;2023-06-26T14:05:28;28.90;36.10
36690;DHT22;22676;51.120;3.702;2023-06-26T14:07:54;29.10;36.00
36690;DHT22;22676;51.120;3.702;2023-06-26T14:10:20;28.60;36.30
36690;DHT22;22676;51.120;3.702;2023-06-26T14:12:45;28.40;36.30
36690;DHT22;22676;51.120;3.702;2023-06-26T14:15:11;28.70;36.30
36690;DHT22;22676;51.120;3.702;2023-06-26T14:17:37;28.30;36.70
36690;DHT22;22676;51.120;3.702;2023-06-26T14:20:06;28.50;37.10
36690;DHT22;22676;51.120;3.702;2023-06-26T14:22:32;28.80;37.00
36690;DHT22;22676;51.120;3.702;2023-06-26T14:24:58;28.90;36.30
36690;DHT22;22676;51.120;3.702;2023-06-26T14:27:23;28.90;36.10
36690;DHT22;22676;51.120;3.702;2023-06-26T14:29:49;28.60;36.30
36690;DHT22;22676;51.120;3.702;2023-06-26T14:32:16;28.60;36.20
36690;DHT22;22676;51.120;3.702;2023-06-26T14:34:42;28.90;36.30
36690;DHT22;22676;51.120;3.702;2023-06-26T14:37:07;28.80;36.10
36690;DHT22;22676;51.120;3.702;2023-06-26T14:39:33;29.00;36.10
36690;DHT22;22676;51.120;3.702;2023-06-26T14:41:58;29.20;35.70
36690;DHT22;22676;51.120;3.702;2023-06-26T14:44:24;29.20;35.30
36690;DHT22;22676;51.120;3.702;2023-06-26T14:46:50;29.20;35.60
36690;DHT22;22676;51.120;3.702;2023-06-26T14:49:15;28.60;35.90
36690;DHT22;22676;51.120;3.702;2023-06-26T14:51:41;28.50;36.40
36690;DHT22;22676;51.120;3.702;2023-06-26T14:54:06;28.70;36.60
36690;DHT22;22676;51.120;3.702;2023-06-26T14:56:32;28.40;35.90
36690;DHT22;22676;51.120;3.702;2023-06-26T14:58:58;28.50;36.30
36690;DHT22;22676;51.120;3.702;2023-06-26T15:01:23;28.30;36.20
36690;DHT22;22676;51.120;3.702;2023-06-26T15:03:49;28.00;36.90
36690;DHT22;22676;51.120;3.702;2023-06-26T15:06:14;28.20;37.10
36690;DHT22;22676;51.120;3.702;2023-06-26T15:08:40;28.10;37.10
36690;DHT22;22676;51.120;3.702;2023-06-26T15:11:05;28.00;37.30
36690;DHT22;22676;51.120;3.702;2023-06-26T15:13:31;28.00;37.90
36690;DHT22;22676;51.120;3.702;2023-06-26T15:15:56;28.10;37.40
36690;DHT22;22676;51.120;3.702;2023-06-26T15:18:22;28.20;37.10
36690;DHT22;22676;51.120;3.702;2023-06-26T15:20:47;28.10;37.10
36690;DHT22;22676;51.120;3.702;2023-06-26T15:23:13;28.10;37.60
36690;DHT22;22676;51.120;3.702;2023-06-26T15:25:39;28.10;37.30
36690;DHT22;22676;51.120;3.702;2023-06-26T15:28:05;28.10;37.50
36690;DHT22;22676;51.120;3.702;2023-06-26T15:30:30;28.10;37.40
36690;DHT22;22676;51.120;3.702;2023-06-26T15:32:56;28.10;37.30
36690;DHT22;22676;51.120;3.702;2023-06-26T15:35:21;28.10;38.10
36690;DHT22;22676;51.120;3.702;2023-06-26T15:37:47;28.00;37.40
36690;DHT22;22676;51.120;3.702;2023-06-26T15:40:14;28.00;37.70
36690;DHT22;22676;51.120;3.702;2023-06-26T15:42:47;28.10;37.70